Erquelinnes, Belgium
Current Conditions -  °F | °C
As of 8:50 PM on Saturday 25 Oct 2014 (Local Time) from EBCI Reporting Station
Scattered Clouds Scattered Clouds  
Wind Chill: 11°   Ceiling: Unl
Heat Index: 11°   Visibility: 6mi
Dew Point: 10°   Wind: 5mph
Humidity: 94%   Direction: 190°S
Pressure: 30.18"   Gusts: NA
Location:  50.31°N, 4.11°E
Report Text: EBCI 251850Z 19004KT 9999 SCT026 11/10 Q1022 NOSIG
Loading
Personal Weather Stations






























Interactive Weather Map
Tropical Storm Tracking
New forecast layout! Learn more

10-Day Weather Forecast

Advertisements
Track Severe Weather on mobile